createdAt,value
2023-01-10T00:02:24.172Z,8.20
2023-01-10T00:04:53.119Z,7.82
2023-01-10T00:07:23.466Z,7.97
2023-01-10T00:09:52.376Z,8.35
2023-01-10T00:12:38.563Z,9.05
2023-01-10T00:15:08.276Z,8.50
2023-01-10T00:17:37.375Z,8.35
2023-01-10T00:20:07.786Z,8.60
2023-01-10T00:22:38.181Z,8.07
2023-01-10T00:25:07.707Z,7.40
2023-01-10T00:27:37.290Z,8.02
2023-01-10T00:30:17.072Z,8.00
2023-01-10T00:32:46.805Z,7.70
2023-01-10T00:35:15.784Z,7.95
2023-01-10T00:37:46.362Z,7.05
2023-01-10T00:40:15.820Z,7.60
2023-01-10T00:43:02.056Z,8.02
2023-01-10T00:45:30.923Z,7.53
2023-01-10T00:47:59.484Z,7.72
2023-01-10T00:50:28.165Z,7.57
2023-01-10T00:52:58.195Z,7.68
2023-01-10T00:55:29.967Z,7.72
2023-01-10T01:00:27.168Z,8.05
2023-01-10T01:02:58.055Z,7.75
2023-01-10T01:05:27.343Z,8.52
2023-01-10T01:08:01.849Z,7.07
2023-01-10T01:10:31.067Z,8.00
2023-01-10T01:13:01.581Z,8.75
2023-01-10T01:15:30.548Z,7.80
2023-01-10T01:17:59.183Z,8.18
2023-01-10T01:20:28.331Z,8.00
2023-01-10T01:22:57.099Z,8.60
2023-01-10T01:25:27.172Z,8.68
2023-01-10T01:27:56.080Z,7.93
2023-01-10T01:30:25.572Z,9.32
2023-01-10T01:32:54.915Z,7.97
2023-01-10T01:35:25.314Z,8.65
2023-01-10T01:37:54.095Z,8.63
2023-01-10T01:40:24.567Z,8.60
2023-01-10T01:42:56.096Z,8.27
2023-01-10T01:45:39.813Z,8.90
2023-01-10T01:48:32.220Z,8.75
2023-01-10T01:51:08.040Z,9.27
2023-01-10T01:53:44.763Z,8.77
2023-01-10T01:56:18.578Z,9.20
2023-01-10T01:58:54.956Z,9.57
2023-01-10T02:01:23.982Z,10.38
2023-01-10T02:04:01.888Z,9.02
2023-01-10T02:06:31.171Z,9.35
2023-01-10T02:09:07.622Z,9.10
2023-01-10T02:11:36.108Z,8.25
2023-01-10T02:14:09.296Z,8.93
2023-01-10T02:16:38.409Z,9.93
2023-01-10T02:19:14.821Z,9.07
2023-01-10T02:22:16.822Z,8.93
2023-01-10T02:25:19.946Z,8.90
2023-01-10T02:28:06.689Z,9.05
2023-01-10T02:30:55.151Z,8.30
2023-01-10T02:33:31.330Z,8.88
2023-01-10T02:36:16.865Z,9.18
2023-01-10T02:38:58.854Z,9.32
2023-01-10T02:44:05.856Z,8.98
2023-01-10T02:46:37.232Z,9.20
2023-01-10T02:49:07.730Z,9.07
2023-01-10T02:51:36.489Z,8.90
2023-01-10T02:54:10.177Z,8.52
2023-01-10T02:57:25.515Z,8.38
2023-01-10T03:00:22.222Z,9.15
2023-01-10T03:03:06.100Z,8.85
2023-01-10T03:05:50.786Z,8.98
2023-01-10T03:08:28.228Z,8.80
2023-01-10T03:10:59.917Z,9.13
2023-01-10T03:16:03.213Z,9.23
2023-01-10T03:18:36.186Z,9.05
2023-01-10T03:21:09.327Z,9.32
2023-01-10T03:23:39.152Z,8.85
2023-01-10T03:26:09.991Z,9.05
2023-01-10T03:28:46.877Z,9.73
2023-01-10T03:31:18.827Z,9.30
2023-01-10T03:33:49.420Z,9.02
2023-01-10T03:36:31.440Z,9.30
2023-01-10T03:39:07.650Z,10.00
2023-01-10T03:41:41.923Z,9.57
2023-01-10T03:44:35.879Z,9.23
2023-01-10T03:47:11.713Z,8.98
2023-01-10T03:49:43.316Z,8.65
2023-01-10T03:52:18.837Z,8.82
2023-01-10T03:54:48.980Z,10.05
2023-01-10T03:57:19.705Z,9.57
2023-01-10T03:59:49.815Z,10.18
2023-01-10T04:02:18.754Z,9.63
2023-01-10T04:04:47.945Z,9.27
2023-01-10T04:07:18.578Z,10.48
2023-01-10T04:09:47.724Z,10.00
2023-01-10T04:12:16.525Z,9.52
2023-01-10T04:14:47.079Z,10.65
2023-01-10T04:17:18.019Z,9.70
2023-01-10T04:19:47.196Z,9.10
2023-01-10T04:22:15.869Z,9.55
2023-01-10T04:24:47.556Z,9.57
2023-01-10T04:27:16.471Z,9.65
2023-01-10T04:29:45.141Z,10.23
2023-01-10T04:32:14.480Z,10.13
2023-01-10T04:34:43.379Z,9.98
2023-01-10T04:37:11.869Z,9.63
2023-01-10T04:39:40.692Z,9.80
2023-01-10T04:42:11.175Z,10.35
2023-01-10T04:44:39.593Z,10.57
2023-01-10T04:47:08.569Z,10.20
2023-01-10T04:49:37.256Z,9.55
2023-01-10T04:52:06.389Z,9.82
2023-01-10T04:54:35.128Z,9.73
2023-01-10T04:57:05.756Z,9.38
2023-01-10T04:59:35.783Z,10.38
2023-01-10T05:02:04.698Z,10.07
2023-01-10T05:04:34.456Z,10.35
2023-01-10T05:07:03.848Z,9.75
2023-01-10T05:09:32.436Z,10.13
2023-01-10T05:12:00.888Z,10.32
2023-01-10T05:14:29.639Z,10.25
2023-01-10T05:16:59.655Z,10.00
2023-01-10T05:19:28.491Z,10.40
2023-01-10T05:21:57.761Z,9.43
2023-01-10T05:24:26.387Z,9.65
2023-01-10T05:26:55.701Z,10.35
2023-01-10T05:29:24.389Z,10.00
2023-01-10T05:31:53.093Z,10.40
2023-01-10T05:34:23.062Z,10.65
2023-01-10T05:36:52.001Z,9.52
2023-01-10T05:39:21.508Z,9.75
2023-01-10T05:41:50.177Z,10.20
2023-01-10T05:44:18.824Z,9.75
2023-01-10T05:46:47.990Z,10.18
2023-01-10T05:49:17.219Z,10.32
2023-01-10T05:51:47.373Z,9.10
2023-01-10T05:54:16.160Z,9.85
2023-01-10T05:56:45.393Z,8.93
2023-01-10T05:59:27.259Z,9.65
2023-01-10T06:01:57.600Z,9.60
2023-01-10T06:04:27.736Z,9.77
2023-01-10T06:06:57.710Z,10.05
2023-01-10T06:09:26.481Z,9.93
2023-01-10T06:11:55.655Z,10.63
2023-01-10T06:14:24.437Z,11.48
2023-01-10T06:16:53.309Z,11.70
2023-01-10T06:19:22.079Z,10.43
2023-01-10T06:21:50.587Z,11.30
2023-01-10T06:24:20.723Z,11.00
2023-01-10T06:26:49.710Z,11.90
2023-01-10T06:29:18.270Z,12.82
2023-01-10T06:31:46.967Z,11.55
2023-01-10T06:34:15.874Z,11.90
2023-01-10T06:36:45.130Z,11.75
2023-01-10T06:39:15.078Z,12.02
2023-01-10T06:41:45.327Z,12.07
2023-01-10T06:44:14.012Z,11.27
2023-01-10T06:46:42.531Z,12.70
2023-01-10T06:49:11.727Z,11.82
2023-01-10T06:51:40.379Z,12.10
2023-01-10T06:54:09.148Z,12.43
2023-01-10T06:56:37.851Z,11.80
2023-01-10T06:59:08.545Z,12.90
2023-01-10T07:01:37.504Z,13.43
2023-01-10T07:04:06.750Z,12.98
2023-01-10T07:06:38.825Z,12.35
2023-01-10T07:09:07.955Z,12.52
2023-01-10T07:11:37.598Z,12.18
2023-01-10T07:14:09.838Z,12.15
2023-01-10T07:16:38.524Z,13.40
2023-01-10T07:19:08.721Z,12.80
2023-01-10T07:21:37.898Z,12.70
2023-01-10T07:24:08.764Z,14.07
2023-01-10T07:26:37.372Z,13.10
2023-01-10T07:29:07.438Z,13.95
2023-01-10T07:31:38.968Z,15.55
2023-01-10T07:34:07.705Z,14.80
2023-01-10T07:36:39.380Z,14.40
2023-01-10T07:39:08.541Z,13.85
2023-01-10T07:41:37.854Z,14.75
2023-01-10T07:44:08.022Z,15.55
2023-01-10T07:46:36.559Z,15.05
2023-01-10T07:49:06.122Z,15.32
2023-01-10T07:51:35.778Z,15.88
2023-01-10T07:54:06.548Z,15.35
2023-01-10T07:56:35.361Z,14.70
2023-01-10T07:59:04.132Z,15.10
2023-01-10T08:01:34.347Z,14.63
2023-01-10T08:04:03.748Z,15.63
2023-01-10T08:06:33.169Z,14.95
2023-01-10T08:09:04.088Z,15.45
2023-01-10T08:11:32.965Z,14.30
2023-01-10T08:14:01.503Z,16.48
2023-01-10T08:16:30.227Z,16.13
2023-01-10T08:19:00.690Z,14.40
2023-01-10T08:21:29.720Z,14.05
2023-01-10T08:23:58.623Z,14.48
2023-01-10T08:26:28.480Z,15.32
2023-01-10T08:28:57.039Z,15.40
2023-01-10T08:31:25.990Z,15.55
2023-01-10T08:33:54.930Z,15.68
2023-01-10T08:36:25.360Z,16.25
2023-01-10T08:38:56.815Z,16.23
2023-01-10T08:41:25.764Z,16.75
2023-01-10T08:43:55.199Z,14.85
2023-01-10T08:46:24.216Z,15.85
2023-01-10T08:48:53.223Z,14.90
2023-01-10T08:51:21.876Z,14.48
2023-01-10T08:53:52.219Z,15.38
2023-01-10T08:56:20.798Z,14.90
2023-01-10T08:58:49.358Z,14.38
2023-01-10T09:01:19.331Z,15.65
2023-01-10T09:03:48.693Z,14.13
2023-01-10T09:06:17.495Z,13.93
2023-01-10T09:08:46.118Z,14.55
2023-01-10T09:11:17.083Z,14.02
2023-01-10T09:13:45.898Z,13.63
2023-01-10T09:16:17.588Z,14.73
2023-01-10T09:18:48.465Z,13.68
2023-01-10T09:21:17.263Z,14.23
2023-01-10T09:23:45.806Z,14.05
2023-01-10T09:26:15.435Z,13.23
2023-01-10T09:28:47.443Z,13.02
2023-01-10T09:31:17.886Z,13.07
2023-01-10T09:33:47.762Z,12.93
2023-01-10T09:36:18.183Z,12.85
2023-01-10T09:38:47.184Z,12.23
2023-01-10T09:41:44.295Z,13.10
2023-01-10T09:44:22.888Z,12.68
2023-01-10T09:47:04.041Z,12.60
2023-01-10T09:49:51.137Z,11.60
2023-01-10T09:52:25.112Z,12.50
2023-01-10T09:54:56.871Z,13.88
2023-01-10T09:57:26.609Z,14.13
2023-01-10T09:59:58.023Z,13.70
2023-01-10T10:02:31.560Z,13.40
2023-01-10T10:05:16.921Z,12.73
2023-01-10T10:07:49.593Z,13.75
2023-01-10T10:10:23.274Z,13.02
2023-01-10T10:13:01.379Z,13.50
2023-01-10T10:15:37.581Z,13.80
2023-01-10T10:18:16.993Z,12.32
2023-01-10T10:20:56.396Z,12.45
2023-01-10T10:23:58.010Z,18.48
2023-01-10T10:26:34.423Z,17.85
2023-01-10T10:29:29.987Z,17.90
2023-01-10T10:32:14.079Z,16.75
2023-01-10T10:34:48.431Z,14.30
2023-01-10T10:37:23.100Z,14.10
2023-01-10T10:39:55.491Z,14.90
2023-01-10T10:42:29.741Z,13.98
2023-01-10T10:45:05.443Z,14.57
2023-01-10T10:47:37.323Z,13.68
2023-01-10T10:50:19.459Z,14.75
2023-01-10T10:52:48.884Z,14.48
2023-01-10T10:55:19.926Z,15.63
2023-01-10T10:57:59.875Z,15.68
2023-01-10T11:00:31.218Z,14.32
2023-01-10T11:03:07.616Z,14.50
2023-01-10T11:05:39.179Z,14.60
2023-01-10T11:08:11.754Z,13.32
2023-01-10T11:10:41.111Z,14.15
2023-01-10T11:13:19.285Z,12.40
2023-01-10T11:15:50.761Z,12.48
2023-01-10T11:18:22.970Z,12.77
2023-01-10T11:20:58.009Z,13.73
2023-01-10T11:23:37.706Z,13.32
2023-01-10T11:26:08.573Z,12.80
2023-01-10T11:28:39.008Z,13.10
2023-01-10T11:31:08.509Z,12.30
2023-01-10T11:33:40.446Z,13.02
2023-01-10T11:38:40.401Z,11.82
2023-01-10T11:41:27.413Z,13.75
2023-01-10T11:44:18.714Z,12.07
2023-01-10T11:46:50.252Z,12.35
2023-01-10T11:49:29.341Z,12.82
2023-01-10T11:52:05.780Z,14.20
2023-01-10T11:54:37.569Z,13.85
2023-01-10T11:59:42.086Z,13.45
2023-01-10T12:02:22.313Z,12.85
2023-01-10T12:04:57.395Z,12.95
2023-01-10T12:07:26.195Z,12.45
2023-01-10T12:10:02.727Z,13.30
2023-01-10T12:12:33.868Z,13.18
2023-01-10T12:15:23.875Z,13.50
2023-01-10T12:17:53.967Z,12.95
2023-01-10T12:20:25.168Z,14.55
2023-01-10T12:22:58.814Z,13.27
2023-01-10T12:25:34.839Z,13.55
2023-01-10T12:28:18.932Z,12.65
2023-01-10T12:30:51.985Z,13.07
2023-01-10T12:33:25.087Z,12.90
2023-01-10T12:36:01.162Z,12.48
2023-01-10T12:38:53.201Z,12.52
2023-01-10T12:44:17.363Z,13.98
2023-01-10T12:47:06.426Z,12.88
2023-01-10T12:49:45.144Z,12.25
2023-01-10T12:52:21.402Z,13.00
2023-01-10T12:54:52.001Z,12.68
2023-01-10T12:57:27.766Z,12.75
2023-01-10T13:00:00.308Z,12.32
2023-01-10T13:02:43.935Z,14.20
2023-01-10T13:05:23.440Z,12.43
2023-01-10T13:08:00.863Z,12.30
2023-01-10T13:10:30.863Z,13.50
2023-01-10T13:13:07.962Z,13.00
2023-01-10T13:15:40.296Z,12.90
2023-01-10T13:18:23.360Z,13.50
2023-01-10T13:21:05.341Z,13.30
2023-01-10T13:26:09.328Z,12.75
2023-01-10T13:28:40.936Z,11.80
2023-01-10T13:31:24.776Z,12.52
2023-01-10T13:33:56.628Z,12.27
2023-01-10T13:36:28.235Z,12.73
2023-01-10T13:39:02.328Z,13.35
2023-01-10T13:42:21.860Z,13.30
2023-01-10T13:45:20.946Z,12.13
2023-01-10T13:48:33.225Z,12.43
2023-01-10T13:51:15.328Z,12.77
2023-01-10T13:53:53.345Z,12.07
2023-01-10T13:56:37.402Z,12.73
2023-01-10T13:59:30.146Z,12.50
2023-01-10T14:02:19.666Z,12.13
2023-01-10T14:04:52.203Z,11.55
2023-01-10T14:07:31.560Z,12.90
2023-01-10T14:10:05.042Z,13.07
2023-01-10T14:12:40.445Z,12.45
2023-01-10T14:15:24.956Z,12.43
2023-01-10T14:18:02.672Z,11.95
2023-01-10T14:20:33.617Z,11.60
2023-01-10T14:23:09.093Z,12.07
2023-01-10T14:25:39.512Z,11.70
2023-01-10T14:28:22.690Z,13.05
2023-01-10T14:31:01.927Z,11.88
2023-01-10T14:33:32.108Z,12.52
2023-01-10T14:36:04.483Z,12.80
2023-01-10T14:38:36.608Z,11.32
2023-01-10T14:41:08.747Z,11.73
2023-01-10T14:43:46.264Z,11.20
2023-01-10T14:46:19.605Z,11.48
2023-01-10T14:48:51.595Z,11.32
2023-01-10T14:51:25.796Z,11.75
2023-01-10T14:53:58.661Z,11.05
2023-01-10T14:56:29.158Z,11.05
2023-01-10T14:58:59.203Z,11.50
2023-01-10T15:01:31.235Z,12.18
2023-01-10T15:04:02.994Z,11.57
2023-01-10T15:06:52.332Z,12.15
2023-01-10T15:09:21.351Z,10.77
2023-01-10T15:11:50.809Z,11.52
2023-01-10T15:14:23.579Z,12.30
2023-01-10T15:16:55.691Z,12.18
2023-01-10T15:19:28.075Z,12.68
2023-01-10T15:21:59.021Z,11.07
2023-01-10T15:24:38.231Z,12.63
2023-01-10T15:27:09.177Z,12.70
2023-01-10T15:29:44.837Z,10.95
2023-01-10T15:32:22.971Z,12.38
2023-01-10T15:34:54.738Z,11.32
2023-01-10T15:37:27.366Z,11.52
2023-01-10T15:39:56.903Z,12.15
2023-01-10T15:42:25.615Z,10.50
2023-01-10T15:44:56.424Z,11.25
2023-01-10T15:47:39.007Z,10.55
2023-01-10T15:52:51.934Z,10.98
2023-01-10T15:55:45.580Z,11.18
2023-01-10T15:58:21.118Z,11.73
2023-01-10T16:00:53.153Z,11.60
2023-01-10T16:03:26.073Z,11.25
2023-01-10T16:05:59.217Z,10.85
2023-01-10T16:08:32.988Z,11.75
2023-01-10T16:11:04.625Z,11.68
2023-01-10T16:13:34.121Z,10.40
2023-01-10T16:16:08.517Z,12.15
2023-01-10T16:18:37.100Z,11.57
2023-01-10T16:21:11.341Z,11.00
2023-01-10T16:23:46.302Z,12.13
2023-01-10T16:26:16.098Z,11.82
2023-01-10T16:28:45.545Z,12.02
2023-01-10T16:31:16.247Z,12.30
2023-01-10T16:33:45.685Z,11.75
2023-01-10T16:36:17.244Z,11.57
2023-01-10T16:38:46.234Z,10.90
2023-01-10T16:41:34.205Z,11.65
2023-01-10T16:44:03.257Z,11.52
2023-01-10T16:46:34.430Z,12.00
2023-01-10T16:49:06.677Z,11.77
2023-01-10T16:51:39.629Z,11.00
2023-01-10T16:54:11.579Z,11.40
2023-01-10T16:56:40.456Z,12.13
2023-01-10T16:59:09.949Z,11.85
2023-01-10T17:01:43.873Z,12.43
2023-01-10T17:04:17.275Z,12.05
2023-01-10T17:06:45.967Z,13.27
2023-01-10T17:09:21.794Z,11.25
2023-01-10T17:11:56.865Z,12.25
2023-01-10T17:14:25.680Z,12.98
2023-01-10T17:16:57.829Z,12.38
2023-01-10T17:19:27.194Z,11.63
2023-01-10T17:21:56.129Z,10.98
2023-01-10T17:24:25.022Z,12.05
2023-01-10T17:26:53.630Z,12.75
2023-01-10T17:29:23.404Z,13.02
2023-01-10T17:31:52.522Z,12.68
2023-01-10T17:34:22.904Z,15.30
2023-01-10T17:36:51.890Z,14.10
2023-01-10T17:39:20.721Z,13.73
2023-01-10T17:41:49.410Z,14.95
2023-01-10T17:44:18.089Z,14.15
2023-01-10T17:46:48.266Z,15.77
2023-01-10T17:49:17.109Z,14.98
2023-01-10T17:51:47.330Z,15.13
2023-01-10T17:54:16.190Z,15.18
2023-01-10T17:56:45.297Z,15.57
2023-01-10T17:59:14.239Z,13.57
2023-01-10T18:01:43.641Z,15.13
2023-01-10T18:04:12.769Z,13.80
2023-01-10T18:06:42.822Z,14.57
2023-01-10T18:09:13.023Z,15.40
2023-01-10T18:11:42.040Z,15.07
2023-01-10T18:14:28.021Z,16.10
2023-01-10T18:16:56.707Z,15.30
2023-01-10T18:19:25.948Z,16.58
2023-01-10T18:21:54.798Z,15.80
2023-01-10T18:24:24.942Z,15.38
2023-01-10T18:26:53.690Z,14.48
2023-01-10T18:29:22.482Z,15.63
2023-01-10T18:31:51.208Z,14.98
2023-01-10T18:34:19.812Z,14.60
2023-01-10T18:36:48.578Z,16.50
2023-01-10T18:39:17.301Z,15.13
2023-01-10T18:41:47.660Z,15.13
2023-01-10T18:44:16.476Z,16.75
2023-01-10T18:46:47.688Z,15.23
2023-01-10T18:49:17.649Z,15.70
2023-01-10T18:51:46.438Z,15.70
2023-01-10T18:54:15.389Z,14.23
2023-01-10T18:56:45.650Z,15.30
2023-01-10T18:59:18.742Z,15.18
2023-01-10T19:01:47.610Z,15.65
2023-01-10T19:04:17.733Z,14.25
2023-01-10T19:06:46.901Z,14.27
2023-01-10T19:09:15.692Z,15.40
2023-01-10T19:11:44.387Z,15.38
2023-01-10T19:14:13.184Z,16.67
2023-01-10T19:16:44.100Z,16.85
2023-01-10T19:19:13.441Z,16.40
2023-01-10T19:21:43.092Z,16.88
2023-01-10T19:24:23.577Z,16.70
2023-01-10T19:26:53.280Z,16.13
2023-01-10T19:29:22.828Z,16.40
2023-01-10T19:31:53.452Z,15.68
2023-01-10T19:34:22.325Z,16.08
2023-01-10T19:36:53.496Z,17.33
2023-01-10T19:39:22.833Z,16.85
2023-01-10T19:41:52.274Z,17.17
2023-01-10T19:44:23.740Z,17.45
2023-01-10T19:46:54.180Z,18.17
2023-01-10T19:49:24.182Z,18.80
2023-01-10T19:51:53.852Z,17.42
2023-01-10T19:54:25.685Z,19.63
2023-01-10T19:56:54.696Z,19.85
2023-01-10T19:59:26.955Z,19.40
2023-01-10T20:01:57.281Z,19.02
2023-01-10T20:04:26.309Z,19.08
2023-01-10T20:06:55.073Z,18.58
2023-01-10T20:09:23.727Z,18.38
2023-01-10T20:11:52.744Z,20.23
2023-01-10T20:14:22.897Z,20.58
2023-01-10T20:16:52.696Z,19.23
2023-01-10T20:19:24.215Z,19.00
2023-01-10T20:21:55.501Z,19.17
2023-01-10T20:24:24.827Z,19.63
2023-01-10T20:26:53.804Z,18.45
2023-01-10T20:29:23.266Z,19.40
2023-01-10T20:31:56.007Z,19.55
2023-01-10T20:34:29.409Z,19.65
2023-01-10T20:37:03.688Z,18.80
2023-01-10T20:39:33.170Z,19.95
2023-01-10T20:42:02.301Z,18.63
2023-01-10T20:44:32.167Z,19.00
2023-01-10T20:47:00.890Z,19.52
2023-01-10T20:49:31.692Z,18.90
2023-01-10T20:52:00.296Z,18.13
2023-01-10T20:54:29.178Z,19.02
2023-01-10T20:56:58.070Z,20.00
2023-01-10T20:59:29.188Z,19.42
2023-01-10T21:02:01.252Z,18.35
2023-01-10T21:04:33.369Z,19.45
2023-01-10T21:07:05.201Z,19.60
2023-01-10T21:09:34.594Z,19.00
2023-01-10T21:12:17.639Z,19.15
2023-01-10T21:14:56.555Z,20.30
2023-01-10T21:17:25.230Z,19.65
2023-01-10T21:19:58.569Z,22.45
2023-01-10T21:22:28.569Z,21.33
2023-01-10T21:24:57.086Z,20.23
2023-01-10T21:27:30.548Z,20.00
2023-01-10T21:30:00.711Z,19.42
2023-01-10T21:32:29.278Z,19.45
2023-01-10T21:35:00.289Z,20.42
2023-01-10T21:37:29.316Z,20.13
2023-01-10T21:40:00.133Z,20.90
2023-01-10T21:42:44.769Z,21.13
2023-01-10T21:45:13.748Z,18.73
2023-01-10T21:47:42.985Z,19.42
2023-01-10T21:50:16.309Z,19.20
2023-01-10T21:52:46.370Z,19.67
2023-01-10T21:55:16.267Z,19.50
2023-01-10T21:57:45.033Z,19.05
2023-01-10T22:00:17.413Z,17.92
2023-01-10T22:02:47.871Z,19.83
2023-01-10T22:05:18.646Z,19.35
2023-01-10T22:07:48.413Z,18.33
2023-01-10T22:10:17.761Z,18.88
2023-01-10T22:12:47.951Z,19.45
2023-01-10T22:15:17.874Z,19.83
2023-01-10T22:17:48.293Z,21.27
2023-01-10T22:20:19.245Z,20.25
2023-01-10T22:22:48.317Z,19.50
2023-01-10T22:25:17.178Z,20.73
2023-01-10T22:27:45.909Z,20.02
2023-01-10T22:30:14.710Z,19.77
2023-01-10T22:32:43.440Z,19.60
2023-01-10T22:35:14.885Z,19.83
2023-01-10T22:37:44.864Z,20.58
2023-01-10T22:40:14.155Z,19.30
2023-01-10T22:42:43.181Z,19.67
2023-01-10T22:45:12.819Z,20.20
2023-01-10T22:47:42.249Z,20.98
2023-01-10T22:50:12.112Z,18.67
2023-01-10T22:52:41.221Z,18.10
2023-01-10T22:55:11.625Z,17.15
2023-01-10T22:57:47.217Z,17.50
2023-01-10T23:00:16.827Z,17.15
2023-01-10T23:02:46.227Z,15.75
2023-01-10T23:05:15.141Z,16.08
2023-01-10T23:07:43.638Z,15.77
2023-01-10T23:10:28.739Z,15.68
2023-01-10T23:12:59.710Z,16.45
2023-01-10T23:15:28.362Z,15.90
2023-01-10T23:17:57.007Z,15.57
2023-01-10T23:20:25.758Z,15.43
2023-01-10T23:22:54.375Z,15.48
2023-01-10T23:25:24.446Z,15.13
2023-01-10T23:27:53.262Z,15.90
2023-01-10T23:30:26.819Z,16.38
2023-01-10T23:32:56.151Z,15.00
2023-01-10T23:35:25.274Z,16.17
2023-01-10T23:37:54.363Z,16.65
2023-01-10T23:40:24.466Z,15.85
2023-01-10T23:42:52.860Z,15.32
2023-01-10T23:45:21.523Z,14.50
2023-01-10T23:47:50.053Z,16.98
2023-01-10T23:50:20.262Z,14.63
2023-01-10T23:52:49.131Z,14.77
2023-01-10T23:55:18.410Z,15.23
2023-01-10T23:57:48.147Z,14.90
